Aérodrome :
LOGIN :

S'inscrire | Disclaimer

   EN    FR    IT 

 










Légende :    VFR   VFR Marginal   IFR   IFR Intensif   IFR Très Intensif
Visi : 
Plafond : 
>= 8 km
>= 3000ft
5 à 8 km
1000 à 3000 ft
1500m à 5 km
500 à 1000 ft
800 à 1500m
200 à 500 ft
< 800m
< 200 ft
Symboles :   Orages  Brouillard  Fortes neiges  Fortes précipitations  Vent > 20 kt
SIGMETs :   Divers  Orages  Givrage  Turbulence  Onde Orograph.  Cendres Volcan.







- Altitude de l'aérodrome : 132 ft


EGXE - RAF Leeming

DERNIER METAR :
  • 231350Z 15009KT 9999 SCT011 BKN028 14/12 Q1012 GRN TEMPO SCT004 YLO2

METARs EXPIRÉS :
  • 231315Z 18011KT 9999 FEW011 BKN015 BKN028 13/11 Q1013 WHT TEMPO 3000 -RADZ SCT006 YLO1
  • 231250Z 17014KT 9999 BKN008 BKN015 13/11 Q1012 GRN TEMPO 3000 -RADZ BKN006 YLO1

TAF AMD TAF EGXE
Valide du 23 à 15h jusqu'au 23 à 20h UTC


231439Z 2315/2320 17008KT 9999 -RA BKN010
PROB30
TEMPO 2315/2318 2000 -RADZ SCT004
BECMG 2316/2319 FEW012 SCT030
Pas de NOTAMs connus pour ce terrain.



MET'MAP, la Météo Aéronautique d'un coup d'oeil ! - Copyright ORBIFLY Décembre 2007 - Disclaimer

ORBIFLY MET'MAP TEAM :

Programmation & Développement : Alexandra Zaïnal
Conception & Développement : Baudouin d'Aumeries
Co-Programmation & Développement : Marc-Olivier Méhu
Soutien technique & logistique : Manuel Goepfert

Contact : metmap@orbifly.com




SOURCES & CREDITS :

   NOAA